sensor_id;sensor_type;location;lat;lon;timestamp;pressure;altitude;pressure_sealevel;temperature
71463;BMP180;59266;52.608;13.260;2022-09-13T00:00:38;100860.00;;;12.50
71463;BMP180;59266;52.608;13.260;2022-09-13T00:03:05;100851.00;;;12.60
71463;BMP180;59266;52.608;13.260;2022-09-13T00:05:32;100847.00;;;12.70
71463;BMP180;59266;52.608;13.260;2022-09-13T00:07:58;100838.00;;;12.60
71463;BMP180;59266;52.608;13.260;2022-09-13T00:10:25;100843.00;;;12.60
71463;BMP180;59266;52.608;13.260;2022-09-13T00:12:52;100844.00;;;12.50
71463;BMP180;59266;52.608;13.260;2022-09-13T00:15:19;100834.00;;;12.50
71463;BMP180;59266;52.608;13.260;2022-09-13T00:17:45;100831.00;;;12.60
71463;BMP180;59266;52.608;13.260;2022-09-13T00:20:12;100832.00;;;12.60
71463;BMP180;59266;52.608;13.260;2022-09-13T00:22:39;100830.00;;;12.60
71463;BMP180;59266;52.608;13.260;2022-09-13T00:25:06;100814.00;;;12.40
71463;BMP180;59266;52.608;13.260;2022-09-13T00:27:36;100809.00;;;12.50
71463;BMP180;59266;52.608;13.260;2022-09-13T00:30:04;100803.00;;;12.50
71463;BMP180;59266;52.608;13.260;2022-09-13T00:32:32;100787.00;;;12.50
71463;BMP180;59266;52.608;13.260;2022-09-13T00:35:00;100796.00;;;12.70
71463;BMP180;59266;52.608;13.260;2022-09-13T00:37:27;100796.00;;;12.80
71463;BMP180;59266;52.608;13.260;2022-09-13T00:39:53;100786.00;;;12.70
71463;BMP180;59266;52.608;13.260;2022-09-13T00:42:24;100776.00;;;12.70
71463;BMP180;59266;52.608;13.260;2022-09-13T00:44:57;100775.00;;;12.50
71463;BMP180;59266;52.608;13.260;2022-09-13T00:47:56;100770.00;;;12.50
71463;BMP180;59266;52.608;13.260;2022-09-13T00:50:29;100763.00;;;12.60
71463;BMP180;59266;52.608;13.260;2022-09-13T00:53:06;100757.00;;;12.50
71463;BMP180;59266;52.608;13.260;2022-09-13T00:55:42;100767.00;;;12.50
71463;BMP180;59266;52.608;13.260;2022-09-13T00:58:12;100764.00;;;12.50
71463;BMP180;59266;52.608;13.260;2022-09-13T01:00:43;100765.00;;;12.50
71463;BMP180;59266;52.608;13.260;2022-09-13T01:03:12;100766.00;;;12.50
71463;BMP180;59266;52.608;13.260;2022-09-13T01:05:46;100765.00;;;12.40
71463;BMP180;59266;52.608;13.260;2022-09-13T01:08:15;100749.00;;;12.50
71463;BMP180;59266;52.608;13.260;2022-09-13T01:10:49;100752.00;;;12.50
71463;BMP180;59266;52.608;13.260;2022-09-13T01:13:25;100742.00;;;12.40
71463;BMP180;59266;52.608;13.260;2022-09-13T01:15:53;100746.00;;;12.30
71463;BMP180;59266;52.608;13.260;2022-09-13T01:18:19;100746.00;;;12.20
71463;BMP180;59266;52.608;13.260;2022-09-13T01:21:29;100746.00;;;12.20
71463;BMP180;59266;52.608;13.260;2022-09-13T01:24:03;100745.00;;;12.20
71463;BMP180;59266;52.608;13.260;2022-09-13T01:26:48;100733.00;;;12.20
71463;BMP180;59266;52.608;13.260;2022-09-13T01:29:41;100732.00;;;12.20
71463;BMP180;59266;52.608;13.260;2022-09-13T01:32:25;100735.00;;;12.10
71463;BMP180;59266;52.608;13.260;2022-09-13T01:38:04;100738.00;;;12.10
71463;BMP180;59266;52.608;13.260;2022-09-13T01:40:50;100733.00;;;12.00
71463;BMP180;59266;52.608;13.260;2022-09-13T01:46:31;100723.00;;;12.00
71463;BMP180;59266;52.608;13.260;2022-09-13T01:49:18;100721.00;;;12.00
71463;BMP180;59266;52.608;13.260;2022-09-13T01:52:00;100724.00;;;12.10
71463;BMP180;59266;52.608;13.260;2022-09-13T01:54:56;100714.00;;;12.00
71463;BMP180;59266;52.608;13.260;2022-09-13T01:57:33;100709.00;;;12.00
71463;BMP180;59266;52.608;13.260;2022-09-13T02:00:06;100712.00;;;12.00
71463;BMP180;59266;52.608;13.260;2022-09-13T02:02:39;100709.00;;;11.90
71463;BMP180;59266;52.608;13.260;2022-09-13T02:05:18;100698.00;;;12.00
71463;BMP180;59266;52.608;13.260;2022-09-13T02:07:53;100701.00;;;12.10
71463;BMP180;59266;52.608;13.260;2022-09-13T02:10:25;100700.00;;;12.10
71463;BMP180;59266;52.608;13.260;2022-09-13T02:12:54;100691.00;;;12.10
71463;BMP180;59266;52.608;13.260;2022-09-13T02:15:28;100696.00;;;12.10
71463;BMP180;59266;52.608;13.260;2022-09-13T02:18:03;100686.00;;;12.10
71463;BMP180;59266;52.608;13.260;2022-09-13T02:20:38;100685.00;;;12.10
71463;BMP180;59266;52.608;13.260;2022-09-13T02:23:13;100670.00;;;12.30
71463;BMP180;59266;52.608;13.260;2022-09-13T02:25:42;100665.00;;;12.50
71463;BMP180;59266;52.608;13.260;2022-09-13T02:28:14;100664.00;;;12.50
71463;BMP180;59266;52.608;13.260;2022-09-13T02:30:46;100655.00;;;12.60
71463;BMP180;59266;52.608;13.260;2022-09-13T02:36:02;100642.00;;;12.60
71463;BMP180;59266;52.608;13.260;2022-09-13T02:38:37;100648.00;;;12.70
71463;BMP180;59266;52.608;13.260;2022-09-13T02:41:13;100644.00;;;12.70
71463;BMP180;59266;52.608;13.260;2022-09-13T02:43:46;100644.00;;;12.80
71463;BMP180;59266;52.608;13.260;2022-09-13T02:46:30;100643.00;;;12.70
71463;BMP180;59266;52.608;13.260;2022-09-13T02:49:22;100641.00;;;12.80
71463;BMP180;59266;52.608;13.260;2022-09-13T02:52:00;100636.00;;;12.70
71463;BMP180;59266;52.608;13.260;2022-09-13T02:54:41;100638.00;;;12.70
71463;BMP180;59266;52.608;13.260;2022-09-13T02:57:19;100629.00;;;12.60
71463;BMP180;59266;52.608;13.260;2022-09-13T02:59:47;100628.00;;;12.60
71463;BMP180;59266;52.608;13.260;2022-09-13T03:02:17;100615.00;;;12.70
71463;BMP180;59266;52.608;13.260;2022-09-13T03:04:44;100608.00;;;12.80
71463;BMP180;59266;52.608;13.260;2022-09-13T03:07:13;100607.00;;;12.70
71463;BMP180;59266;52.608;13.260;2022-09-13T03:09:45;100604.00;;;12.70
71463;BMP180;59266;52.608;13.260;2022-09-13T03:15:15;100605.00;;;12.60
71463;BMP180;59266;52.608;13.260;2022-09-13T03:20:56;100594.00;;;12.70
71463;BMP180;59266;52.608;13.260;2022-09-13T03:23:35;100588.00;;;12.70
71463;BMP180;59266;52.608;13.260;2022-09-13T03:26:26;100583.00;;;12.60
71463;BMP180;59266;52.608;13.260;2022-09-13T03:28:57;100597.00;;;12.60
71463;BMP180;59266;52.608;13.260;2022-09-13T03:31:37;100581.00;;;12.60
71463;BMP180;59266;52.608;13.260;2022-09-13T03:34:32;100587.00;;;12.70
71463;BMP180;59266;52.608;13.260;2022-09-13T03:37:13;100583.00;;;12.80
71463;BMP180;59266;52.608;13.260;2022-09-13T03:39:58;100588.00;;;12.90
71463;BMP180;59266;52.608;13.260;2022-09-13T03:42:36;100593.00;;;12.90
71463;BMP180;59266;52.608;13.260;2022-09-13T03:45:07;100582.00;;;12.90
71463;BMP180;59266;52.608;13.260;2022-09-13T03:47:37;100580.00;;;12.90
71463;BMP180;59266;52.608;13.260;2022-09-13T03:50:06;100580.00;;;13.10
71463;BMP180;59266;52.608;13.260;2022-09-13T03:52:34;100576.00;;;13.20
71463;BMP180;59266;52.608;13.260;2022-09-13T03:55:02;100577.00;;;13.30
71463;BMP180;59266;52.608;13.260;2022-09-13T03:57:28;100568.00;;;13.40
71463;BMP180;59266;52.608;13.260;2022-09-13T03:59:56;100563.00;;;13.50
71463;BMP180;59266;52.608;13.260;2022-09-13T04:02:23;100545.00;;;13.50
71463;BMP180;59266;52.608;13.260;2022-09-13T04:04:51;100549.00;;;13.50
71463;BMP180;59266;52.608;13.260;2022-09-13T04:07:19;100546.00;;;13.60
71463;BMP180;59266;52.608;13.260;2022-09-13T04:09:46;100559.00;;;13.60
71463;BMP180;59266;52.608;13.260;2022-09-13T04:12:14;100548.00;;;13.60
71463;BMP180;59266;52.608;13.260;2022-09-13T04:14:41;100543.00;;;13.60
71463;BMP180;59266;52.608;13.260;2022-09-13T04:17:09;100536.00;;;13.60
71463;BMP180;59266;52.608;13.260;2022-09-13T04:19:36;100535.00;;;13.60
71463;BMP180;59266;52.608;13.260;2022-09-13T04:22:03;100540.00;;;13.70
71463;BMP180;59266;52.608;13.260;2022-09-13T04:24:30;100529.00;;;13.70
71463;BMP180;59266;52.608;13.260;2022-09-13T04:26:57;100533.00;;;13.70
71463;BMP180;59266;52.608;13.260;2022-09-13T04:29:25;100525.00;;;13.80
71463;BMP180;59266;52.608;13.260;2022-09-13T04:31:53;100516.00;;;13.80
71463;BMP180;59266;52.608;13.260;2022-09-13T04:34:21;100524.00;;;13.80
71463;BMP180;59266;52.608;13.260;2022-09-13T04:36:49;100517.00;;;14.00
71463;BMP180;59266;52.608;13.260;2022-09-13T04:39:16;100505.00;;;13.90
71463;BMP180;59266;52.608;13.260;2022-09-13T04:41:43;100506.00;;;13.90
71463;BMP180;59266;52.608;13.260;2022-09-13T04:44:15;100503.00;;;13.90
71463;BMP180;59266;52.608;13.260;2022-09-13T04:46:42;100501.00;;;13.90
71463;BMP180;59266;52.608;13.260;2022-09-13T04:49:09;100516.00;;;14.00
71463;BMP180;59266;52.608;13.260;2022-09-13T04:51:36;100510.00;;;14.10
71463;BMP180;59266;52.608;13.260;2022-09-13T04:54:02;100499.00;;;14.20
71463;BMP180;59266;52.608;13.260;2022-09-13T04:56:29;100499.00;;;14.20
71463;BMP180;59266;52.608;13.260;2022-09-13T04:58:55;100494.00;;;14.20
71463;BMP180;59266;52.608;13.260;2022-09-13T05:01:23;100492.00;;;14.20
71463;BMP180;59266;52.608;13.260;2022-09-13T05:03:53;100494.00;;;14.30
71463;BMP180;59266;52.608;13.260;2022-09-13T05:06:21;100493.00;;;14.40
71463;BMP180;59266;52.608;13.260;2022-09-13T05:08:52;100489.00;;;14.30
71463;BMP180;59266;52.608;13.260;2022-09-13T05:11:21;100468.00;;;14.30
71463;BMP180;59266;52.608;13.260;2022-09-13T05:13:52;100466.00;;;14.40
71463;BMP180;59266;52.608;13.260;2022-09-13T05:16:25;100467.00;;;14.40
71463;BMP180;59266;52.608;13.260;2022-09-13T05:18:52;100478.00;;;14.30
71463;BMP180;59266;52.608;13.260;2022-09-13T05:21:19;100483.00;;;14.40
71463;BMP180;59266;52.608;13.260;2022-09-13T05:23:50;100496.00;;;14.40
71463;BMP180;59266;52.608;13.260;2022-09-13T05:26:17;100480.00;;;14.50
71463;BMP180;59266;52.608;13.260;2022-09-13T05:28:44;100498.00;;;14.40
71463;BMP180;59266;52.608;13.260;2022-09-13T05:33:40;100499.00;;;14.60
71463;BMP180;59266;52.608;13.260;2022-09-13T05:36:07;100494.00;;;14.70
71463;BMP180;59266;52.608;13.260;2022-09-13T05:38:33;100491.00;;;14.80
71463;BMP180;59266;52.608;13.260;2022-09-13T05:41:01;100497.00;;;14.70
71463;BMP180;59266;52.608;13.260;2022-09-13T05:43:30;100494.00;;;14.60
71463;BMP180;59266;52.608;13.260;2022-09-13T05:46:04;100500.00;;;14.80
71463;BMP180;59266;52.608;13.260;2022-09-13T05:48:32;100493.00;;;14.80
71463;BMP180;59266;52.608;13.260;2022-09-13T05:51:14;100508.00;;;14.70
71463;BMP180;59266;52.608;13.260;2022-09-13T05:53:42;100519.00;;;14.70
71463;BMP180;59266;52.608;13.260;2022-09-13T05:56:12;100519.00;;;14.60
71463;BMP180;59266;52.608;13.260;2022-09-13T05:58:44;100518.00;;;14.60
71463;BMP180;59266;52.608;13.260;2022-09-13T06:01:11;100514.00;;;14.70
71463;BMP180;59266;52.608;13.260;2022-09-13T06:03:39;100520.00;;;14.80
71463;BMP180;59266;52.608;13.260;2022-09-13T06:06:06;100526.00;;;14.80
71463;BMP180;59266;52.608;13.260;2022-09-13T06:08:33;100519.00;;;14.80
71463;BMP180;59266;52.608;13.260;2022-09-13T06:11:05;100528.00;;;14.90
71463;BMP180;59266;52.608;13.260;2022-09-13T06:13:33;100532.00;;;14.90
71463;BMP180;59266;52.608;13.260;2022-09-13T06:16:02;100522.00;;;14.80
71463;BMP180;59266;52.608;13.260;2022-09-13T06:18:29;100532.00;;;14.70
71463;BMP180;59266;52.608;13.260;2022-09-13T06:21:01;100528.00;;;14.30
71463;BMP180;59266;52.608;13.260;2022-09-13T06:23:29;100529.00;;;14.40
71463;BMP180;59266;52.608;13.260;2022-09-13T06:26:07;100529.00;;;14.40
71463;BMP180;59266;52.608;13.260;2022-09-13T06:28:34;100519.00;;;14.20
71463;BMP180;59266;52.608;13.260;2022-09-13T06:31:11;100529.00;;;14.30
71463;BMP180;59266;52.608;13.260;2022-09-13T06:33:39;100535.00;;;14.40
71463;BMP180;59266;52.608;13.260;2022-09-13T06:36:11;100527.00;;;14.50
71463;BMP180;59266;52.608;13.260;2022-09-13T06:38:40;100519.00;;;14.60
71463;BMP180;59266;52.608;13.260;2022-09-13T06:41:09;100497.00;;;14.70
71463;BMP180;59266;52.608;13.260;2022-09-13T06:43:36;100492.00;;;14.70
71463;BMP180;59266;52.608;13.260;2022-09-13T06:46:09;100486.00;;;14.90
71463;BMP180;59266;52.608;13.260;2022-09-13T06:48:37;100483.00;;;14.90
71463;BMP180;59266;52.608;13.260;2022-09-13T06:51:07;100475.00;;;15.00
71463;BMP180;59266;52.608;13.260;2022-09-13T06:53:34;100477.00;;;15.20
71463;BMP180;59266;52.608;13.260;2022-09-13T06:56:13;100462.00;;;15.20
71463;BMP180;59266;52.608;13.260;2022-09-13T06:58:41;100465.00;;;15.10
71463;BMP180;59266;52.608;13.260;2022-09-13T07:01:17;100467.00;;;15.20
71463;BMP180;59266;52.608;13.260;2022-09-13T07:03:49;100463.00;;;15.30
71463;BMP180;59266;52.608;13.260;2022-09-13T07:06:18;100449.00;;;15.30
71463;BMP180;59266;52.608;13.260;2022-09-13T07:08:49;100449.00;;;15.50
71463;BMP180;59266;52.608;13.260;2022-09-13T07:11:18;100446.00;;;15.40
71463;BMP180;59266;52.608;13.260;2022-09-13T07:14:04;100445.00;;;15.60
71463;BMP180;59266;52.608;13.260;2022-09-13T07:16:34;100457.00;;;15.70
71463;BMP180;59266;52.608;13.260;2022-09-13T07:19:03;100459.00;;;15.70
71463;BMP180;59266;52.608;13.260;2022-09-13T07:21:33;100445.00;;;15.90
71463;BMP180;59266;52.608;13.260;2022-09-13T07:24:00;100446.00;;;16.00
71463;BMP180;59266;52.608;13.260;2022-09-13T07:26:27;100450.00;;;16.10
71463;BMP180;59266;52.608;13.260;2022-09-13T07:28:56;100451.00;;;16.20
71463;BMP180;59266;52.608;13.260;2022-09-13T07:31:26;100452.00;;;16.50
71463;BMP180;59266;52.608;13.260;2022-09-13T07:33:56;100454.00;;;16.70
71463;BMP180;59266;52.608;13.260;2022-09-13T07:36:23;100456.00;;;16.70
71463;BMP180;59266;52.608;13.260;2022-09-13T07:38:50;100452.00;;;17.00
71463;BMP180;59266;52.608;13.260;2022-09-13T07:41:19;100451.00;;;17.10
71463;BMP180;59266;52.608;13.260;2022-09-13T07:43:46;100448.00;;;17.30
71463;BMP180;59266;52.608;13.260;2022-09-13T07:46:14;100450.00;;;17.50
71463;BMP180;59266;52.608;13.260;2022-09-13T07:48:42;100447.00;;;17.70
71463;BMP180;59266;52.608;13.260;2022-09-13T07:51:14;100456.00;;;17.80
71463;BMP180;59266;52.608;13.260;2022-09-13T07:53:42;100457.00;;;18.00
71463;BMP180;59266;52.608;13.260;2022-09-13T07:56:20;100448.00;;;18.30
71463;BMP180;59266;52.608;13.260;2022-09-13T07:58:48;100453.00;;;18.20
71463;BMP180;59266;52.608;13.260;2022-09-13T08:01:23;100454.00;;;17.90
71463;BMP180;59266;52.608;13.260;2022-09-13T08:06:20;100439.00;;;18.30
71463;BMP180;59266;52.608;13.260;2022-09-13T08:08:47;100442.00;;;18.70
71463;BMP180;59266;52.608;13.260;2022-09-13T08:11:16;100442.00;;;19.20
71463;BMP180;59266;52.608;13.260;2022-09-13T08:13:48;100445.00;;;18.90
71463;BMP180;59266;52.608;13.260;2022-09-13T08:16:15;100451.00;;;18.50
71463;BMP180;59266;52.608;13.260;2022-09-13T08:18:48;100451.00;;;18.40
71463;BMP180;59266;52.608;13.260;2022-09-13T08:21:16;100463.00;;;18.90
71463;BMP180;59266;52.608;13.260;2022-09-13T08:23:42;100451.00;;;18.90
71463;BMP180;59266;52.608;13.260;2022-09-13T08:26:09;100459.00;;;19.00
71463;BMP180;59266;52.608;13.260;2022-09-13T08:28:40;100460.00;;;18.60
71463;BMP180;59266;52.608;13.260;2022-09-13T08:31:15;100466.00;;;18.60
71463;BMP180;59266;52.608;13.260;2022-09-13T08:33:44;100475.00;;;18.40
71463;BMP180;59266;52.608;13.260;2022-09-13T08:36:13;100474.00;;;18.70
71463;BMP180;59266;52.608;13.260;2022-09-13T08:38:47;100472.00;;;19.00
71463;BMP180;59266;52.608;13.260;2022-09-13T08:44:34;100455.00;;;20.30
71463;BMP180;59266;52.608;13.260;2022-09-13T08:47:14;100455.00;;;20.70
71463;BMP180;59266;52.608;13.260;2022-09-13T08:49:47;100456.00;;;20.30
71463;BMP180;59266;52.608;13.260;2022-09-13T08:52:32;100456.00;;;20.00
71463;BMP180;59266;52.608;13.260;2022-09-13T08:55:07;100453.00;;;19.50
71463;BMP180;59266;52.608;13.260;2022-09-13T08:57:48;100454.00;;;20.50
71463;BMP180;59266;52.608;13.260;2022-09-13T09:00:24;100456.00;;;20.50
71463;BMP180;59266;52.608;13.260;2022-09-13T09:05:47;100443.00;;;21.90
71463;BMP180;59266;52.608;13.260;2022-09-13T09:08:30;100419.00;;;23.30
71463;BMP180;59266;52.608;13.260;2022-09-13T09:11:02;100430.00;;;27.20
71463;BMP180;59266;52.608;13.260;2022-09-13T09:13:49;100442.00;;;27.00
71463;BMP180;59266;52.608;13.260;2022-09-13T09:16:36;100449.00;;;25.20
71463;BMP180;59266;52.608;13.260;2022-09-13T09:19:15;100447.00;;;24.20
71463;BMP180;59266;52.608;13.260;2022-09-13T09:21:46;100442.00;;;24.20
71463;BMP180;59266;52.608;13.260;2022-09-13T09:24:23;100426.00;;;24.30
71463;BMP180;59266;52.608;13.260;2022-09-13T09:26:51;100406.00;;;28.70
71463;BMP180;59266;52.608;13.260;2022-09-13T09:29:21;100417.00;;;30.30
71463;BMP180;59266;52.608;13.260;2022-09-13T09:35:18;100446.00;;;27.10
71463;BMP180;59266;52.608;13.260;2022-09-13T09:40:42;100446.00;;;24.00
71463;BMP180;59266;52.608;13.260;2022-09-13T09:43:16;100453.00;;;24.50
71463;BMP180;59266;52.608;13.260;2022-09-13T09:45:44;100448.00;;;24.00
71463;BMP180;59266;52.608;13.260;2022-09-13T09:48:15;100440.00;;;25.00
71463;BMP180;59266;52.608;13.260;2022-09-13T09:50:47;100430.00;;;25.60
71463;BMP180;59266;52.608;13.260;2022-09-13T09:53:29;100424.00;;;25.30
71463;BMP180;59266;52.608;13.260;2022-09-13T09:56:14;100426.00;;;26.90
71463;BMP180;59266;52.608;13.260;2022-09-13T09:58:45;100402.00;;;26.70
71463;BMP180;59266;52.608;13.260;2022-09-13T10:01:21;100422.00;;;28.10
71463;BMP180;59266;52.608;13.260;2022-09-13T10:06:38;100424.00;;;27.30
71463;BMP180;59266;52.608;13.260;2022-09-13T10:14:42;100427.00;;;25.90
71463;BMP180;59266;52.608;13.260;2022-09-13T10:17:19;100430.00;;;24.30
71463;BMP180;59266;52.608;13.260;2022-09-13T10:19:56;100425.00;;;24.30
71463;BMP180;59266;52.608;13.260;2022-09-13T10:22:25;100433.00;;;23.20
71463;BMP180;59266;52.608;13.260;2022-09-13T10:24:51;100435.00;;;23.00
71463;BMP180;59266;52.608;13.260;2022-09-13T10:27:24;100434.00;;;23.60
71463;BMP180;59266;52.608;13.260;2022-09-13T10:29:56;100427.00;;;23.60
71463;BMP180;59266;52.608;13.260;2022-09-13T10:32:27;100429.00;;;22.90
71463;BMP180;59266;52.608;13.260;2022-09-13T10:34:55;100424.00;;;22.50
71463;BMP180;59266;52.608;13.260;2022-09-13T10:37:27;100413.00;;;22.40
71463;BMP180;59266;52.608;13.260;2022-09-13T10:40:06;100427.00;;;22.90
71463;BMP180;59266;52.608;13.260;2022-09-13T10:42:35;100410.00;;;22.60
71463;BMP180;59266;52.608;13.260;2022-09-13T10:45:07;100398.00;;;23.60
71463;BMP180;59266;52.608;13.260;2022-09-13T10:47:45;100402.00;;;24.50
71463;BMP180;59266;52.608;13.260;2022-09-13T10:50:24;100408.00;;;24.30
71463;BMP180;59266;52.608;13.260;2022-09-13T10:52:55;100407.00;;;23.90
71463;BMP180;59266;52.608;13.260;2022-09-13T10:55:29;100408.00;;;23.00
71463;BMP180;59266;52.608;13.260;2022-09-13T11:00:51;100411.00;;;22.20
71463;BMP180;59266;52.608;13.260;2022-09-13T11:06:19;100418.00;;;21.30
71463;BMP180;59266;52.608;13.260;2022-09-13T11:11:26;100431.00;;;21.50
71463;BMP180;59266;52.608;13.260;2022-09-13T11:14:11;100423.00;;;22.10
71463;BMP180;59266;52.608;13.260;2022-09-13T11:16:53;100417.00;;;21.30
71463;BMP180;59266;52.608;13.260;2022-09-13T11:19:47;100419.00;;;21.30
71463;BMP180;59266;52.608;13.260;2022-09-13T11:22:49;100417.00;;;21.20
71463;BMP180;59266;52.608;13.260;2022-09-13T11:31:41;100423.00;;;21.00
71463;BMP180;59266;52.608;13.260;2022-09-13T11:39:28;100423.00;;;20.50
71463;BMP180;59266;52.608;13.260;2022-09-13T11:42:21;100409.00;;;20.60
71463;BMP180;59266;52.608;13.260;2022-09-13T11:47:54;100414.00;;;20.70
71463;BMP180;59266;52.608;13.260;2022-09-13T11:50:48;100412.00;;;20.80
71463;BMP180;59266;52.608;13.260;2022-09-13T11:53:44;100413.00;;;20.70
71463;BMP180;59266;52.608;13.260;2022-09-13T11:56:32;100417.00;;;21.10
71463;BMP180;59266;52.608;13.260;2022-09-13T11:59:18;100414.00;;;20.70
71463;BMP180;59266;52.608;13.260;2022-09-13T12:01:57;100419.00;;;20.50
71463;BMP180;59266;52.608;13.260;2022-09-13T12:08:06;100406.00;;;20.40
71463;BMP180;59266;52.608;13.260;2022-09-13T12:10:56;100411.00;;;20.20
71463;BMP180;59266;52.608;13.260;2022-09-13T12:13:30;100413.00;;;20.40
71463;BMP180;59266;52.608;13.260;2022-09-13T12:16:09;100413.00;;;20.70
71463;BMP180;59266;52.608;13.260;2022-09-13T12:18:43;100408.00;;;20.90
71463;BMP180;59266;52.608;13.260;2022-09-13T12:21:14;100416.00;;;21.00
71463;BMP180;59266;52.608;13.260;2022-09-13T12:23:49;100399.00;;;20.80
71463;BMP180;59266;52.608;13.260;2022-09-13T12:26:38;100388.00;;;20.90
71463;BMP180;59266;52.608;13.260;2022-09-13T12:29:18;100400.00;;;20.90
71463;BMP180;59266;52.608;13.260;2022-09-13T12:31:46;100395.00;;;21.10
71463;BMP180;59266;52.608;13.260;2022-09-13T12:34:21;100398.00;;;21.10
71463;BMP180;59266;52.608;13.260;2022-09-13T12:36:59;100400.00;;;21.10
71463;BMP180;59266;52.608;13.260;2022-09-13T12:39:50;100396.00;;;21.20
71463;BMP180;59266;52.608;13.260;2022-09-13T12:42:35;100399.00;;;20.80
71463;BMP180;59266;52.608;13.260;2022-09-13T12:45:29;100398.00;;;20.90
71463;BMP180;59266;52.608;13.260;2022-09-13T12:48:22;100390.00;;;20.80
71463;BMP180;59266;52.608;13.260;2022-09-13T12:51:04;100392.00;;;20.80
71463;BMP180;59266;52.608;13.260;2022-09-13T12:54:04;100400.00;;;20.50
71463;BMP180;59266;52.608;13.260;2022-09-13T12:56:43;100400.00;;;20.50
71463;BMP180;59266;52.608;13.260;2022-09-13T12:59:30;100394.00;;;20.80
71463;BMP180;59266;52.608;13.260;2022-09-13T13:02:23;100395.00;;;20.70
71463;BMP180;59266;52.608;13.260;2022-09-13T13:04:52;100390.00;;;20.70
71463;BMP180;59266;52.608;13.260;2022-09-13T13:07:22;100389.00;;;21.10
71463;BMP180;59266;52.608;13.260;2022-09-13T13:09:51;100377.00;;;21.10
71463;BMP180;59266;52.608;13.260;2022-09-13T13:12:33;100379.00;;;21.60
71463;BMP180;59266;52.608;13.260;2022-09-13T13:15:04;100383.00;;;21.50
71463;BMP180;59266;52.608;13.260;2022-09-13T13:23:26;100360.00;;;22.10
71463;BMP180;59266;52.608;13.260;2022-09-13T13:25:56;100366.00;;;22.20
71463;BMP180;59266;52.608;13.260;2022-09-13T13:31:10;100343.00;;;22.00
71463;BMP180;59266;52.608;13.260;2022-09-13T13:36:26;100344.00;;;23.60
71463;BMP180;59266;52.608;13.260;2022-09-13T13:38:54;100354.00;;;23.70
71463;BMP180;59266;52.608;13.260;2022-09-13T13:46:41;100341.00;;;22.10
71463;BMP180;59266;52.608;13.260;2022-09-13T13:59:57;100350.00;;;22.50
71463;BMP180;59266;52.608;13.260;2022-09-13T14:03:25;100350.00;;;22.70
71463;BMP180;59266;52.608;13.260;2022-09-13T14:05:46;100352.00;;;22.40
71463;BMP180;59266;52.608;13.260;2022-09-13T14:11:48;100330.00;;;23.00
71463;BMP180;59266;52.608;13.260;2022-09-13T14:14:52;100338.00;;;24.00
71463;BMP180;59266;52.608;13.260;2022-09-13T14:17:54;100342.00;;;23.50
71463;BMP180;59266;52.608;13.260;2022-09-13T14:20:27;100351.00;;;22.60
71463;BMP180;59266;52.608;13.260;2022-09-13T14:23:16;100360.00;;;22.60
71463;BMP180;59266;52.608;13.260;2022-09-13T14:25:44;100363.00;;;22.50
71463;BMP180;59266;52.608;13.260;2022-09-13T14:28:16;100368.00;;;22.20
71463;BMP180;59266;52.608;13.260;2022-09-13T14:30:45;100351.00;;;22.40
71463;BMP180;59266;52.608;13.260;2022-09-13T14:33:22;100351.00;;;22.80
71463;BMP180;59266;52.608;13.260;2022-09-13T14:35:58;100353.00;;;22.90
71463;BMP180;59266;52.608;13.260;2022-09-13T14:38:27;100349.00;;;23.00
71463;BMP180;59266;52.608;13.260;2022-09-13T14:41:14;100345.00;;;22.50
71463;BMP180;59266;52.608;13.260;2022-09-13T14:43:43;100346.00;;;22.10
71463;BMP180;59266;52.608;13.260;2022-09-13T14:46:37;100323.00;;;22.20
71463;BMP180;59266;52.608;13.260;2022-09-13T14:49:04;100343.00;;;22.80
71463;BMP180;59266;52.608;13.260;2022-09-13T14:51:54;100339.00;;;22.50
71463;BMP180;59266;52.608;13.260;2022-09-13T14:54:43;100310.00;;;22.20
71463;BMP180;59266;52.608;13.260;2022-09-13T14:57:29;100330.00;;;22.50
71463;BMP180;59266;52.608;13.260;2022-09-13T15:00:05;100324.00;;;22.30
71463;BMP180;59266;52.608;13.260;2022-09-13T15:02:37;100319.00;;;23.20
71463;BMP180;59266;52.608;13.260;2022-09-13T15:05:11;100294.00;;;23.40
71463;BMP180;59266;52.608;13.260;2022-09-13T15:07:39;100310.00;;;23.40
71463;BMP180;59266;52.608;13.260;2022-09-13T15:10:31;100294.00;;;23.30
71463;BMP180;59266;52.608;13.260;2022-09-13T15:15:39;100287.00;;;23.20
71463;BMP180;59266;52.608;13.260;2022-09-13T15:20:50;100304.00;;;23.20
71463;BMP180;59266;52.608;13.260;2022-09-13T15:23:26;100292.00;;;23.00
71463;BMP180;59266;52.608;13.260;2022-09-13T15:25:54;100289.00;;;22.80
71463;BMP180;59266;52.608;13.260;2022-09-13T15:28:25;100288.00;;;22.30
71463;BMP180;59266;52.608;13.260;2022-09-13T15:30:52;100293.00;;;22.60
71463;BMP180;59266;52.608;13.260;2022-09-13T15:33:27;100279.00;;;22.50
71463;BMP180;59266;52.608;13.260;2022-09-13T15:36:14;100287.00;;;22.60
71463;BMP180;59266;52.608;13.260;2022-09-13T15:39:02;100281.00;;;22.70
71463;BMP180;59266;52.608;13.260;2022-09-13T15:41:31;100278.00;;;22.80
71463;BMP180;59266;52.608;13.260;2022-09-13T15:43:59;100280.00;;;22.70
71463;BMP180;59266;52.608;13.260;2022-09-13T15:46:26;100290.00;;;22.50
71463;BMP180;59266;52.608;13.260;2022-09-13T15:48:56;100277.00;;;22.40
71463;BMP180;59266;52.608;13.260;2022-09-13T15:51:23;100290.00;;;22.30
71463;BMP180;59266;52.608;13.260;2022-09-13T15:53:50;100292.00;;;22.60
71463;BMP180;59266;52.608;13.260;2022-09-13T15:56:41;100293.00;;;22.80
71463;BMP180;59266;52.608;13.260;2022-09-13T15:59:06;100300.00;;;22.80
71463;BMP180;59266;52.608;13.260;2022-09-13T16:01:33;100307.00;;;22.60
71463;BMP180;59266;52.608;13.260;2022-09-13T16:04:00;100306.00;;;22.10